Time;durP1;ratioP1;P1;durP2;ratioP2;P2;SDS_P1;SDS_P2;PMS_P1;PMS_P2;Temp;Humidity;BMP_temperature;BMP_pressure;BME280_temperature;BME280_humidity;BME280_pressure;Samples;Min_cycle;Max_cycle;Signal;HPM_P1;HPM_P2
2020/12/15 00:02:09;;;;;;;2.40;1.90;;;11.70;99.90;;;;;;4998631;28;20185;-86
2020/12/15 00:04:34;;;;;;;3.03;2.43;;;11.80;99.90;;;;;;4998641;28;20220;-85
2020/12/15 00:07:00;;;;;;;4.50;1.87;;;11.80;99.90;;;;;;4998625;28;20208;-85
2020/12/15 00:09:26;;;;;;;2.57;1.77;;;11.80;99.90;;;;;;4998701;28;20181;-88
2020/12/15 00:11:51;;;;;;;2.03;1.83;;;11.90;99.90;;;;;;4998696;28;20494;-87
2020/12/15 00:14:17;;;;;;;5.03;2.40;;;11.80;99.90;;;;;;4998439;28;20518;-79
2020/12/15 00:16:42;;;;;;;3.67;1.90;;;11.90;99.90;;;;;;4997848;28;20181;-83
2020/12/15 00:19:11;;;;;;;1.93;1.60;;;11.80;99.90;;;;;;4997690;28;20232;-76
2020/12/15 00:21:43;;;;;;;2.47;1.77;;;11.70;99.90;;;;;;4997811;28;20189;-77
2020/12/15 00:24:10;;;;;;;2.30;1.77;;;11.80;99.90;;;;;;4997763;28;20416;-77
2020/12/15 00:26:35;;;;;;;2.50;1.80;;;11.80;99.90;;;;;;4997603;28;20507;-77
2020/12/15 00:29:01;;;;;;;1.93;1.57;;;11.80;99.90;;;;;;4997420;28;20464;-76
2020/12/15 00:31:34;;;;;;;2.80;1.93;;;11.80;99.90;;;;;;4997398;28;20185;-76
2020/12/15 00:34:00;;;;;;;1.83;1.63;;;11.80;99.90;;;;;;4997633;28;20539;-76
2020/12/15 00:36:25;;;;;;;4.63;2.17;;;11.80;99.90;;;;;;4997490;28;20776;-77
2020/12/15 00:38:51;;;;;;;2.90;1.80;;;11.80;99.90;;;;;;4997460;28;20431;-80
2020/12/15 00:41:16;;;;;;;2.80;2.13;;;11.80;99.90;;;;;;4979900;28;20180;-80
2020/12/15 00:43:42;;;;;;;3.47;1.90;;;11.80;99.90;;;;;;4997480;28;20211;-88
2020/12/15 00:46:16;;;;;;;3.07;2.03;;;11.70;99.90;;;;;;4998450;28;20266;-89
2020/12/15 00:48:42;;;;;;;2.27;1.90;;;11.80;99.90;;;;;;4980642;28;20225;-88
2020/12/15 00:51:21;;;;;;;4.93;1.60;;;11.90;99.90;;;;;;4998418;28;20441;-89
2020/12/15 00:53:48;;;;;;;2.77;1.77;;;11.80;99.90;;;;;;4997959;28;20787;-87
2020/12/15 00:56:14;;;;;;;4.37;2.17;;;11.80;99.90;;;;;;4997862;28;20509;-89
2020/12/15 00:58:40;;;;;;;2.63;1.90;;;11.80;99.90;;;;;;4998124;28;20841;-87
2020/12/15 01:01:08;;;;;;;2.30;2.03;;;11.80;99.90;;;;;;4997505;28;20564;-80
2020/12/15 01:03:34;;;;;;;5.70;2.50;;;11.80;99.90;;;;;;4997372;28;20424;-80
2020/12/15 01:06:00;;;;;;;2.43;1.87;;;11.80;99.90;;;;;;4996964;28;20514;-79
2020/12/15 01:08:26;;;;;;;3.20;2.10;;;11.80;99.90;;;;;;4996940;28;20189;-79
2020/12/15 01:10:53;;;;;;;2.30;2.00;;;11.90;99.90;;;;;;4996181;28;20546;-79
2020/12/15 01:13:19;;;;;;;2.80;2.30;;;11.90;99.90;;;;;;4996864;28;20305;-78
2020/12/15 01:15:44;;;;;;;2.93;1.73;;;11.80;99.90;;;;;;4996592;28;20432;-78
2020/12/15 01:18:10;;;;;;;3.27;1.80;;;11.80;99.90;;;;;;4996291;28;20181;-78
2020/12/15 01:20:35;;;;;;;5.10;2.07;;;11.80;99.90;;;;;;4996777;28;20172;-78
2020/12/15 01:23:01;;;;;;;3.50;2.60;;;11.80;99.90;;;;;;4996759;28;20184;-78
2020/12/15 01:25:26;;;;;;;3.33;1.80;;;11.80;99.90;;;;;;4996593;28;20173;-78
2020/12/15 01:27:52;;;;;;;2.77;1.97;;;11.80;99.90;;;;;;4996653;28;20621;-80
2020/12/15 01:30:17;;;;;;;2.23;1.90;;;11.80;99.90;;;;;;4996569;28;20222;-79
2020/12/15 01:32:43;;;;;;;1.60;1.50;;;11.80;99.90;;;;;;4996519;28;20636;-81
2020/12/15 01:35:09;;;;;;;2.83;1.97;;;11.60;99.90;;;;;;4996700;28;20196;-83
2020/12/15 01:37:35;;;;;;;2.20;2.00;;;11.60;99.90;;;;;;4996408;28;20220;-83
2020/12/15 01:40:02;;;;;;;2.50;2.13;;;11.60;99.90;;;;;;4996716;28;20185;-83
2020/12/15 01:42:27;;;;;;;1.97;1.80;;;11.60;99.90;;;;;;4996332;28;20447;-83
2020/12/15 01:44:53;;;;;;;5.90;2.40;;;11.50;99.90;;;;;;4996581;28;20919;-84
2020/12/15 01:47:19;;;;;;;2.90;2.10;;;11.50;99.90;;;;;;4996456;28;20215;-86
2020/12/15 01:49:45;;;;;;;3.00;2.00;;;11.40;99.90;;;;;;4996597;28;20188;-86
2020/12/15 01:52:13;;;;;;;3.77;2.37;;;11.40;99.90;;;;;;4996655;28;20440;-86
2020/12/15 01:54:39;;;;;;;2.90;1.80;;;11.30;99.90;;;;;;4996544;28;20456;-86
2020/12/15 01:57:04;;;;;;;2.50;2.17;;;11.20;99.90;;;;;;4996954;28;20452;-86
2020/12/15 01:59:30;;;;;;;2.90;2.23;;;11.10;99.90;;;;;;4996912;28;20827;-86
2020/12/15 02:01:56;;;;;;;3.87;2.47;;;11.10;99.90;;;;;;4996618;28;20180;-85
2020/12/15 02:04:21;;;;;;;2.60;2.00;;;11.10;99.90;;;;;;4996937;28;20757;-89
2020/12/15 02:06:48;;;;;;;3.20;2.53;;;11.20;99.90;;;;;;4996919;28;20656;-89
2020/12/15 22:10:32;;;;;;;19.47;12.67;;;8.50;99.90;;;;;;5090074;27;20899;-79
2020/12/15 22:12:58;;;;;;;21.17;13.27;;;8.50;99.90;;;;;;5089848;28;20422;-79
2020/12/15 22:15:23;;;;;;;20.13;13.77;;;8.60;99.90;;;;;;5089926;28;20212;-79
2020/12/15 22:17:49;;;;;;;21.80;15.10;;;8.70;99.90;;;;;;5089825;28;20170;-79
2020/12/15 22:20:14;;;;;;;20.33;14.00;;;8.70;99.90;;;;;;5089879;28;20173;-80
2020/12/15 22:22:40;;;;;;;18.33;11.93;;;8.80;99.90;;;;;;5089571;28;20177;-80
2020/12/15 22:25:05;;;;;;;13.57;12.00;;;8.90;99.90;;;;;;5089839;28;20687;-81
2020/12/15 22:27:33;;;;;;;13.63;11.47;;;8.90;99.90;;;;;;5089497;28;20174;-81
2020/12/15 22:30:03;;;;;;;17.07;12.00;;;9.00;99.90;;;;;;5089457;28;20218;-81
2020/12/15 22:32:29;;;;;;;16.23;13.03;;;9.00;99.90;;;;;;5089578;28;20536;-81
2020/12/15 22:34:56;;;;;;;24.20;15.27;;;9.10;99.90;;;;;;5089413;28;20424;-81
2020/12/15 22:37:22;;;;;;;23.33;14.50;;;9.10;99.90;;;;;;5089190;28;20653;-81
2020/12/15 22:39:49;;;;;;;23.00;15.23;;;9.20;99.90;;;;;;5089365;28;20557;-81
2020/12/15 22:42:22;;;;;;;22.10;15.07;;;9.20;99.90;;;;;;5090334;28;20173;-81
2020/12/15 22:44:49;;;;;;;21.52;15.60;;;9.20;99.90;;;;;;5088857;28;20413;-80
2020/12/15 22:47:15;;;;;;;18.37;14.30;;;9.30;99.90;;;;;;5089211;28;20323;-80
2020/12/15 22:49:40;;;;;;;20.13;15.30;;;9.30;99.90;;;;;;5088948;28;20906;-79
2020/12/15 22:52:06;;;;;;;17.50;13.67;;;9.30;99.90;;;;;;5088990;28;20553;-83
2020/12/15 22:54:32;;;;;;;20.83;13.80;;;9.40;99.90;;;;;;5088566;28;20238;-85
2020/12/15 22:56:58;;;;;;;19.93;14.33;;;9.50;99.90;;;;;;5089062;28;20232;-86
2020/12/15 22:59:24;;;;;;;18.63;13.63;;;9.50;99.90;;;;;;5089115;28;20180;-77
2020/12/15 23:01:49;;;;;;;19.13;14.83;;;9.60;99.90;;;;;;5087449;28;20162;-75
2020/12/15 23:04:15;;;;;;;27.43;17.07;;;9.60;99.90;;;;;;5088040;28;20957;-76
2020/12/15 23:06:42;;;;;;;22.47;15.07;;;9.60;99.90;;;;;;5088292;28;20652;-76
2020/12/15 23:09:07;;;;;;;21.60;16.00;;;9.60;99.90;;;;;;5087858;28;20216;-76
2020/12/15 23:11:33;;;;;;;16.90;13.43;;;9.60;99.90;;;;;;5088334;28;20524;-76
2020/12/15 23:13:59;;;;;;;18.90;14.73;;;9.70;99.90;;;;;;5088117;28;20170;-78
2020/12/15 23:16:24;;;;;;;20.40;14.83;;;9.70;99.90;;;;;;5088290;28;20174;-78
2020/12/15 23:18:50;;;;;;;17.63;13.40;;;9.70;99.90;;;;;;5088027;28;20460;-79
2020/12/15 23:21:16;;;;;;;28.03;15.83;;;9.70;99.90;;;;;;5078570;28;20228;-76
2020/12/15 23:23:41;;;;;;;19.77;14.47;;;9.70;99.90;;;;;;5073488;28;20174;-78
2020/12/15 23:26:07;;;;;;;22.43;14.90;;;9.70;99.90;;;;;;5074242;28;20654;-78
2020/12/15 23:28:33;;;;;;;21.43;14.80;;;9.70;99.90;;;;;;5074879;28;20242;-78
2020/12/15 23:30:59;;;;;;;23.50;15.80;;;9.70;99.90;;;;;;5074982;28;20459;-78
2020/12/15 23:33:24;;;;;;;19.93;14.33;;;9.80;99.90;;;;;;5074844;28;20664;-79
2020/12/15 23:35:50;;;;;;;18.97;15.13;;;9.80;99.90;;;;;;5072658;28;20581;-77
2020/12/15 23:38:15;;;;;;;19.30;14.97;;;9.80;99.90;;;;;;5072543;28;20178;-78
2020/12/15 23:40:41;;;;;;;19.50;14.83;;;9.80;99.90;;;;;;5073280;28;20174;-79
2020/12/15 23:43:06;;;;;;;18.40;13.03;;;9.90;99.90;;;;;;5073394;28;20170;-79
2020/12/15 23:45:32;;;;;;;19.40;15.83;;;9.90;99.90;;;;;;5073194;28;20181;-79
2020/12/15 23:47:58;;;;;;;21.67;14.60;;;9.90;99.90;;;;;;5073465;28;20192;-78
2020/12/15 23:50:24;;;;;;;21.30;15.43;;;9.90;99.90;;;;;;5074773;28;20221;-78
2020/12/15 23:52:49;;;;;;;21.73;15.60;;;9.90;99.90;;;;;;5075213;28;20417;-78
2020/12/15 23:55:15;;;;;;;19.90;15.23;;;9.80;99.90;;;;;;5075411;28;20265;-78
2020/12/15 23:57:41;;;;;;;18.90;14.33;;;9.90;99.90;;;;;;5075329;28;20174;-78
